TimeCST,TemperatureF,Dew PointF,Humidity,Sea Level PressureIn,VisibilityMPH,Wind Direction,Wind SpeedMPH,Gust SpeedMPH,PrecipitationIn,Events,Conditions,WindDirDegrees,DateUTC
12:53 AM,62.1,48.0,60,29.97,10.0,South,17.3,-,N/A,,Clear,180,2012-11-22 06:53:00
1:53 AM,63.0,48.0,58,29.95,10.0,South,18.4,-,N/A,,Clear,190,2012-11-22 07:53:00
2:53 AM,61.0,48.0,62,29.94,10.0,South,20.7,31.1,N/A,,Clear,190,2012-11-22 08:53:00
3:53 AM,59.0,48.0,67,29.94,10.0,South,19.6,-,N/A,,Clear,190,2012-11-22 09:53:00
4:53 AM,57.9,48.0,70,29.92,10.0,South,18.4,-,N/A,,Clear,190,2012-11-22 10:53:00
5:53 AM,57.9,48.0,70,29.92,10.0,South,20.7,-,N/A,,Clear,190,2012-11-22 11:53:00
6:53 AM,55.9,48.0,75,29.94,10.0,South,17.3,-,N/A,,Clear,190,2012-11-22 12:53:00
7:53 AM,55.9,48.0,75,29.94,10.0,South,17.3,-,N/A,,Clear,190,2012-11-22 13:53:00
8:53 AM,60.1,50.0,69,29.94,10.0,South,20.7,28.8,N/A,,Clear,190,2012-11-22 14:53:00
9:53 AM,64.9,50.0,58,29.94,10.0,SSW,23.0,32.2,N/A,,Clear,210,2012-11-22 15:53:00
10:53 AM,68.0,50.0,52,29.93,10.0,SSW,23.0,26.5,N/A,,Clear,200,2012-11-22 16:53:00
11:53 AM,71.1,50.0,47,29.91,10.0,SSW,19.6,-,N/A,,Clear,200,2012-11-22 17:53:00
12:53 PM,75.0,48.9,40,29.89,10.0,SSW,19.6,26.5,N/A,,Clear,210,2012-11-22 18:53:00
1:53 PM,77.0,46.9,34,29.87,10.0,SW,12.7,23.0,N/A,,Clear,220,2012-11-22 19:53:00
2:53 PM,78.1,44.1,30,29.86,10.0,SSW,17.3,26.5,N/A,,Clear,210,2012-11-22 20:53:00
3:53 PM,77.0,41.0,28,29.90,10.0,West,15.0,-,N/A,,Clear,260,2012-11-22 21:53:00
4:53 PM,71.1,41.0,34,29.93,10.0,WSW,6.9,-,N/A,,Clear,250,2012-11-22 22:53:00
5:08 PM,68.0,39.2,35,29.98,2.5,NW,18.4,26.5,N/A,,Haze,310,2012-11-22 23:08:00
5:15 PM,68.0,28.4,23,29.99,10.0,NW,13.8,26.5,N/A,,Clear,320,2012-11-22 23:15:00
5:27 PM,68.0,24.8,20,30.00,10.0,NNW,12.7,-,N/A,,Clear,340,2012-11-22 23:27:00
5:53 PM,63.0,26.1,25,29.99,10.0,NNW,10.4,-,N/A,,Clear,340,2012-11-22 23:53:00
6:53 PM,59.0,35.1,41,30.04,10.0,NNW,8.1,-,N/A,,Clear,340,2012-11-23 00:53:00
8:53 PM,62.1,33.1,34,30.15,10.0,North,32.2,40.3,N/A,,Clear,10,2012-11-23 02:53:00
9:53 PM,57.9,32.0,37,30.20,10.0,North,25.3,33.4,N/A,,Clear,10,2012-11-23 03:53:00
10:53 PM,55.0,30.0,38,30.24,10.0,North,24.2,35.7,N/A,,Clear,10,2012-11-23 04:53:00
11:53 PM,53.1,34.0,48,30.27,10.0,North,18.4,28.8,N/A,,Clear,10,2012-11-23 05:53:00